createdAt,value
2023-03-17T00:01:55.841Z,14.02
2023-03-17T00:04:24.778Z,9.23
2023-03-17T00:06:53.146Z,10.20
2023-03-17T00:09:22.270Z,9.45
2023-03-17T00:11:50.839Z,14.57
2023-03-17T00:14:19.742Z,8.70
2023-03-17T00:16:51.964Z,9.70
2023-03-17T00:22:00.937Z,9.20
2023-03-17T00:24:29.322Z,9.30
2023-03-17T00:26:56.781Z,8.02
2023-03-17T00:29:24.127Z,10.32
2023-03-17T00:31:51.886Z,9.50
2023-03-17T00:34:22.285Z,9.38
2023-03-17T00:36:51.021Z,8.48
2023-03-17T00:39:18.893Z,8.23
2023-03-17T00:44:14.405Z,8.90
2023-03-17T00:46:42.378Z,12.93
2023-03-17T00:51:47.361Z,8.63
2023-03-17T00:54:15.786Z,11.80
2023-03-17T00:56:44.432Z,10.30
2023-03-17T00:59:39.377Z,9.15
2023-03-17T01:02:13.807Z,8.70
2023-03-17T01:04:45.612Z,8.00
2023-03-17T01:07:15.341Z,7.97
2023-03-17T01:09:43.944Z,8.45
2023-03-17T01:12:14.035Z,9.45
2023-03-17T01:14:41.818Z,10.32
2023-03-17T01:17:15.024Z,8.82
2023-03-17T01:19:43.171Z,9.20
2023-03-17T01:22:11.188Z,8.40
2023-03-17T01:24:39.951Z,11.05
2023-03-17T01:27:07.425Z,7.97
2023-03-17T01:29:35.429Z,9.98
2023-03-17T01:32:02.742Z,9.82
2023-03-17T01:34:30.175Z,12.80
2023-03-17T01:36:58.617Z,8.35
2023-03-17T01:39:27.424Z,8.75
2023-03-17T01:41:57.152Z,9.85
2023-03-17T01:44:25.663Z,8.18
2023-03-17T01:46:54.561Z,8.30
2023-03-17T01:49:28.220Z,8.25
2023-03-17T01:52:10.598Z,9.88
2023-03-17T01:54:41.994Z,8.75
2023-03-17T01:57:16.225Z,8.25
2023-03-17T01:59:47.030Z,5.87
2023-03-17T02:02:17.976Z,7.45
2023-03-17T02:04:45.707Z,7.95
2023-03-17T02:07:14.093Z,8.27
2023-03-17T02:09:41.995Z,8.02
2023-03-17T02:12:10.292Z,8.95
2023-03-17T02:14:37.712Z,7.68
2023-03-17T02:17:05.924Z,10.25
2023-03-17T02:19:34.123Z,5.80
2023-03-17T02:22:02.500Z,9.50
2023-03-17T02:24:43.323Z,10.85
2023-03-17T02:27:20.007Z,7.05
2023-03-17T02:29:47.687Z,10.27
2023-03-17T02:32:17.784Z,9.52
2023-03-17T02:34:48.767Z,8.07
2023-03-17T02:37:17.906Z,5.80
2023-03-17T02:39:46.534Z,8.40
2023-03-17T02:42:14.495Z,8.82
2023-03-17T02:44:42.168Z,11.77
2023-03-17T02:47:09.507Z,8.00
2023-03-17T02:49:37.820Z,6.32
2023-03-17T02:52:06.113Z,6.18
2023-03-17T02:54:34.009Z,10.70
2023-03-17T02:57:01.762Z,7.25
2023-03-17T02:59:29.503Z,6.60
2023-03-17T03:01:56.913Z,7.22
2023-03-17T03:04:24.490Z,7.78
2023-03-17T03:06:52.463Z,9.60
2023-03-17T03:09:20.550Z,9.13
2023-03-17T03:11:48.194Z,12.63
2023-03-17T03:14:16.176Z,8.73
2023-03-17T03:16:43.732Z,8.63
2023-03-17T03:19:11.573Z,10.27
2023-03-17T03:21:39.579Z,6.93
2023-03-17T03:24:07.333Z,8.90
2023-03-17T03:26:35.059Z,6.20
2023-03-17T03:29:03.432Z,8.98
2023-03-17T03:31:30.951Z,7.07
2023-03-17T03:33:58.391Z,9.98
2023-03-17T03:36:26.874Z,6.55
2023-03-17T03:38:54.284Z,7.45
2023-03-17T03:41:21.879Z,7.45
2023-03-17T03:43:49.504Z,7.03
2023-03-17T03:46:16.938Z,6.60
2023-03-17T03:48:44.443Z,9.77
2023-03-17T03:51:12.134Z,6.78
2023-03-17T03:53:39.497Z,7.30
2023-03-17T03:56:07.048Z,6.75
2023-03-17T03:58:34.799Z,8.40
2023-03-17T04:01:06.453Z,9.00
2023-03-17T04:03:34.335Z,10.90
2023-03-17T04:06:01.802Z,7.75
2023-03-17T04:08:29.551Z,7.25
2023-03-17T04:10:57.802Z,6.72
2023-03-17T04:13:25.725Z,6.97
2023-03-17T04:15:53.191Z,8.82
2023-03-17T04:18:20.836Z,8.40
2023-03-17T04:20:48.248Z,9.05
2023-03-17T04:23:15.580Z,8.52
2023-03-17T04:25:43.189Z,7.00
2023-03-17T04:28:11.896Z,8.18
2023-03-17T04:30:39.333Z,8.35
2023-03-17T04:33:07.198Z,7.65
2023-03-17T04:35:34.683Z,6.65
2023-03-17T04:38:02.704Z,6.65
2023-03-17T04:40:30.515Z,9.05
2023-03-17T04:42:58.045Z,8.18
2023-03-17T04:45:25.791Z,8.38
2023-03-17T04:47:53.462Z,10.50
2023-03-17T04:50:20.909Z,9.68
2023-03-17T04:52:48.582Z,9.48
2023-03-17T04:55:16.539Z,6.55
2023-03-17T04:57:44.191Z,9.65
2023-03-17T05:00:12.761Z,8.55
2023-03-17T05:02:41.153Z,8.68
2023-03-17T05:05:08.598Z,12.07
2023-03-17T05:07:36.115Z,8.70
2023-03-17T05:10:05.452Z,11.23
2023-03-17T05:12:33.036Z,9.10
2023-03-17T05:15:00.434Z,9.57
2023-03-17T05:17:28.142Z,12.25
2023-03-17T05:19:55.766Z,9.95
2023-03-17T05:22:23.181Z,8.82
2023-03-17T05:24:50.856Z,10.80
2023-03-17T05:27:18.287Z,13.68
2023-03-17T05:29:45.677Z,12.05
2023-03-17T05:32:13.865Z,9.05
2023-03-17T05:34:41.275Z,10.88
2023-03-17T05:37:08.702Z,10.23
2023-03-17T05:39:36.332Z,12.80
2023-03-17T05:42:03.825Z,13.52
2023-03-17T05:44:31.569Z,15.98
2023-03-17T05:46:59.730Z,19.20
2023-03-17T05:49:28.270Z,20.42
2023-03-17T05:51:55.865Z,18.95
2023-03-17T05:54:24.090Z,15.38
2023-03-17T05:56:51.457Z,12.95
2023-03-17T05:59:18.823Z,16.98
2023-03-17T06:01:46.526Z,17.85
2023-03-17T06:04:14.579Z,17.25
2023-03-17T06:06:41.904Z,21.05
2023-03-17T06:09:09.408Z,35.38
2023-03-17T06:11:38.151Z,24.30
2023-03-17T06:14:06.082Z,22.77
2023-03-17T06:16:33.533Z,29.12
2023-03-17T06:19:02.255Z,26.90
2023-03-17T06:21:29.656Z,29.17
2023-03-17T06:23:57.030Z,30.27
2023-03-17T06:26:24.694Z,30.75
2023-03-17T06:28:52.039Z,35.83
2023-03-17T06:31:19.502Z,33.72
2023-03-17T06:33:47.881Z,31.85
2023-03-17T06:36:15.605Z,26.80
2023-03-17T06:38:43.712Z,30.73
2023-03-17T06:41:11.776Z,25.08
2023-03-17T06:43:39.292Z,29.98
2023-03-17T06:46:07.430Z,26.58
2023-03-17T06:48:35.274Z,22.00
2023-03-17T06:51:02.636Z,14.60
2023-03-17T06:53:30.448Z,12.07
2023-03-17T06:55:58.071Z,10.35
2023-03-17T06:58:26.034Z,12.32
2023-03-17T07:00:54.024Z,14.27
2023-03-17T07:03:22.540Z,11.12
2023-03-17T07:05:50.024Z,12.27
2023-03-17T07:08:17.946Z,12.18
2023-03-17T07:10:48.960Z,11.32
2023-03-17T07:13:16.296Z,10.07
2023-03-17T07:15:45.229Z,13.02
2023-03-17T07:18:13.432Z,12.27
2023-03-17T07:20:41.303Z,12.45
2023-03-17T07:23:22.862Z,8.38
2023-03-17T07:25:51.505Z,10.02
2023-03-17T07:28:19.296Z,8.88
2023-03-17T07:30:48.490Z,12.55
2023-03-17T07:33:17.426Z,10.13
2023-03-17T07:35:44.806Z,9.82
2023-03-17T07:38:12.231Z,12.37
2023-03-17T07:40:39.891Z,6.50
2023-03-17T07:43:07.303Z,9.00
2023-03-17T07:45:36.049Z,6.82
2023-03-17T07:48:05.058Z,8.77
2023-03-17T07:50:35.761Z,8.25
2023-03-17T07:53:04.056Z,7.35
2023-03-17T07:55:32.816Z,7.22
2023-03-17T07:58:00.510Z,5.90
2023-03-17T08:00:29.068Z,11.12
2023-03-17T08:03:09.415Z,13.48
2023-03-17T08:05:37.683Z,8.93
2023-03-17T08:08:06.558Z,8.73
2023-03-17T08:10:34.597Z,10.98
2023-03-17T08:13:02.400Z,8.68
2023-03-17T08:15:31.228Z,8.50
2023-03-17T08:17:58.948Z,6.43
2023-03-17T08:20:26.445Z,7.68
2023-03-17T08:22:54.203Z,8.55
2023-03-17T08:25:21.951Z,7.45
2023-03-17T08:27:49.357Z,7.90
2023-03-17T08:30:17.673Z,7.68
2023-03-17T08:32:45.117Z,6.87
2023-03-17T08:35:16.018Z,6.25
2023-03-17T08:37:44.514Z,7.37
2023-03-17T08:40:18.692Z,6.32
2023-03-17T08:42:47.352Z,5.95
2023-03-17T08:45:16.503Z,9.73
2023-03-17T08:47:44.373Z,10.48
2023-03-17T08:50:18.850Z,7.57
2023-03-17T08:52:46.611Z,5.30
2023-03-17T08:55:15.322Z,6.60
2023-03-17T08:57:44.687Z,4.68
2023-03-17T09:00:16.061Z,6.00
2023-03-17T09:02:44.844Z,6.53
2023-03-17T09:05:14.016Z,4.75
2023-03-17T09:07:41.789Z,3.92
2023-03-17T09:10:10.968Z,7.22
2023-03-17T09:12:38.733Z,4.05
2023-03-17T09:15:07.653Z,6.12
2023-03-17T09:17:35.316Z,10.45
2023-03-17T09:20:02.905Z,7.60
2023-03-17T09:22:31.069Z,4.50
2023-03-17T09:24:59.036Z,6.65
2023-03-17T09:27:26.482Z,5.50
2023-03-17T09:29:53.860Z,3.95
2023-03-17T09:32:21.639Z,4.95
2023-03-17T09:34:51.424Z,3.70
2023-03-17T09:37:18.994Z,7.40
2023-03-17T09:39:46.661Z,6.00
2023-03-17T09:42:30.273Z,5.57
2023-03-17T09:45:21.700Z,3.85
2023-03-17T09:48:00.855Z,6.62
2023-03-17T09:50:32.365Z,5.70
2023-03-17T09:53:03.736Z,6.12
2023-03-17T09:55:33.732Z,7.18
2023-03-17T09:58:03.345Z,6.12
2023-03-17T10:00:31.205Z,8.43
2023-03-17T10:02:59.362Z,6.30
2023-03-17T10:05:32.172Z,5.72
2023-03-17T10:08:29.447Z,6.28
2023-03-17T10:11:26.813Z,7.28
2023-03-17T10:14:02.595Z,6.90
2023-03-17T10:16:54.655Z,5.50
2023-03-17T10:19:43.052Z,4.80
2023-03-17T10:22:31.142Z,5.07
2023-03-17T10:25:03.821Z,4.50
2023-03-17T10:27:36.224Z,7.43
2023-03-17T10:30:06.198Z,4.15
2023-03-17T10:32:37.826Z,5.40
2023-03-17T10:35:06.779Z,4.97
2023-03-17T10:37:36.594Z,6.47
2023-03-17T10:40:10.452Z,3.95
2023-03-17T10:43:10.302Z,3.75
2023-03-17T10:45:44.090Z,6.93
2023-03-17T10:48:18.793Z,5.78
2023-03-17T10:50:48.585Z,7.75
2023-03-17T10:53:28.305Z,6.55
2023-03-17T10:56:02.391Z,7.05
2023-03-17T10:58:46.990Z,8.05
2023-03-17T11:01:27.866Z,5.68
2023-03-17T11:03:56.259Z,5.18
2023-03-17T11:06:33.991Z,4.95
2023-03-17T11:09:09.583Z,8.93
2023-03-17T11:11:48.889Z,7.50
2023-03-17T11:14:19.063Z,6.03
2023-03-17T11:16:54.525Z,4.65
2023-03-17T11:19:36.814Z,7.85
2023-03-17T11:22:11.657Z,5.82
2023-03-17T11:24:48.586Z,3.97
2023-03-17T11:27:27.580Z,8.20
2023-03-17T11:30:21.124Z,7.25
2023-03-17T11:32:57.104Z,5.95
2023-03-17T11:35:52.419Z,4.62
2023-03-17T11:38:26.412Z,4.20
2023-03-17T11:41:12.266Z,4.70
2023-03-17T11:44:15.415Z,9.23
2023-03-17T11:47:02.856Z,5.18
2023-03-17T11:49:40.160Z,3.92
2023-03-17T11:52:21.934Z,6.68
2023-03-17T11:55:21.559Z,4.18
2023-03-17T11:58:05.170Z,6.68
2023-03-17T12:00:34.871Z,5.43
2023-03-17T12:03:11.491Z,3.58
2023-03-17T12:05:39.665Z,5.25
2023-03-17T12:08:40.359Z,4.95
2023-03-17T12:11:10.681Z,5.72
2023-03-17T12:13:48.513Z,5.55
2023-03-17T12:16:21.359Z,5.70
2023-03-17T12:19:25.274Z,5.68
2023-03-17T12:21:56.652Z,5.97
2023-03-17T12:24:32.561Z,9.10
2023-03-17T12:27:04.449Z,5.47
2023-03-17T12:29:53.369Z,5.85
2023-03-17T12:32:40.326Z,5.78
2023-03-17T12:35:32.064Z,5.28
2023-03-17T12:38:02.996Z,6.60
2023-03-17T12:40:51.286Z,6.43
2023-03-17T12:44:03.175Z,4.68
2023-03-17T12:46:54.961Z,7.43
2023-03-17T12:49:37.733Z,17.52
2023-03-17T12:52:34.684Z,4.70
2023-03-17T12:55:03.856Z,7.07
2023-03-17T12:57:39.895Z,4.53
2023-03-17T13:00:28.305Z,6.70
2023-03-17T13:03:22.533Z,6.57
2023-03-17T13:05:52.839Z,5.93
2023-03-17T13:08:43.834Z,4.45
2023-03-17T13:11:22.046Z,4.55
2023-03-17T13:13:49.664Z,8.68
2023-03-17T13:16:39.355Z,6.43
2023-03-17T13:19:15.331Z,4.78
2023-03-17T13:22:05.619Z,5.70
2023-03-17T13:24:49.351Z,5.57
2023-03-17T13:27:32.095Z,7.22
2023-03-17T13:30:39.922Z,5.97
2023-03-17T13:33:10.147Z,6.10
2023-03-17T13:36:05.664Z,5.03
2023-03-17T13:39:09.881Z,5.32
2023-03-17T13:42:05.564Z,6.40
2023-03-17T13:45:09.826Z,5.97
2023-03-17T13:47:42.212Z,7.18
2023-03-17T13:50:21.483Z,17.25
2023-03-17T13:52:52.976Z,69.30
2023-03-17T13:55:20.508Z,52.30
2023-03-17T13:58:08.265Z,14.18
2023-03-17T14:00:43.751Z,10.93
2023-03-17T14:03:20.688Z,9.32
2023-03-17T14:05:49.713Z,5.93
2023-03-17T14:08:33.950Z,8.05
2023-03-17T14:11:16.518Z,7.28
2023-03-17T14:13:52.549Z,11.30
2023-03-17T14:16:26.961Z,5.90
2023-03-17T14:18:59.638Z,5.22
2023-03-17T14:21:33.833Z,6.15
2023-03-17T14:24:12.194Z,4.97
2023-03-17T14:26:39.593Z,7.07
2023-03-17T14:29:07.513Z,7.35
2023-03-17T14:31:34.973Z,4.87
2023-03-17T14:34:02.436Z,6.03
2023-03-17T14:36:33.593Z,6.15
2023-03-17T14:39:01.025Z,4.80
2023-03-17T14:41:29.276Z,7.12
2023-03-17T14:43:58.728Z,13.35
2023-03-17T14:46:37.233Z,6.00
2023-03-17T14:49:15.786Z,5.25
2023-03-17T14:51:43.537Z,4.85
2023-03-17T14:54:22.822Z,4.32
2023-03-17T14:57:00.058Z,8.05
2023-03-17T14:59:33.545Z,6.12
2023-03-17T15:02:04.044Z,5.05
2023-03-17T15:04:33.935Z,6.05
2023-03-17T15:07:03.816Z,6.65
2023-03-17T15:09:34.354Z,9.85
2023-03-17T15:12:13.160Z,9.93
2023-03-17T15:14:41.042Z,6.95
2023-03-17T15:17:36.117Z,4.37
2023-03-17T15:20:14.322Z,7.70
2023-03-17T15:22:44.507Z,5.30
2023-03-17T15:25:17.853Z,4.62
2023-03-17T15:27:46.421Z,6.78
2023-03-17T15:30:14.801Z,6.55
2023-03-17T15:32:42.232Z,7.28
2023-03-17T15:35:13.880Z,7.20
2023-03-17T15:37:41.682Z,6.68
2023-03-17T15:40:09.691Z,6.45
2023-03-17T15:42:39.425Z,7.12
2023-03-17T15:45:07.885Z,7.70
2023-03-17T15:47:36.972Z,9.32
2023-03-17T15:50:23.855Z,9.43
2023-03-17T15:52:56.165Z,5.97
2023-03-17T15:55:29.693Z,3.70
2023-03-17T15:57:58.113Z,6.25
2023-03-17T16:00:29.419Z,8.63
2023-03-17T16:03:00.143Z,7.60
2023-03-17T16:05:29.828Z,5.93
2023-03-17T16:07:57.743Z,6.65
2023-03-17T16:10:27.785Z,11.07
2023-03-17T16:12:55.243Z,9.68
2023-03-17T16:15:28.021Z,6.37
2023-03-17T16:17:59.173Z,8.35
2023-03-17T16:20:31.423Z,7.97
2023-03-17T16:23:14.684Z,7.80
2023-03-17T16:25:42.734Z,8.43
2023-03-17T16:28:16.729Z,11.52
2023-03-17T16:30:44.844Z,6.55
2023-03-17T16:33:16.610Z,10.18
2023-03-17T16:35:44.291Z,6.53
2023-03-17T16:38:13.720Z,6.28
2023-03-17T16:40:41.708Z,7.40
2023-03-17T16:43:28.519Z,5.18
2023-03-17T16:46:00.424Z,8.27
2023-03-17T16:48:27.940Z,6.93
2023-03-17T16:50:56.129Z,5.90
2023-03-17T16:53:24.176Z,6.00
2023-03-17T16:55:52.481Z,6.65
2023-03-17T16:58:25.562Z,8.60
2023-03-17T17:00:57.525Z,9.07
2023-03-17T17:03:25.508Z,7.82
2023-03-17T17:05:53.169Z,11.05
2023-03-17T17:08:20.529Z,11.05
2023-03-17T17:10:48.169Z,9.63
2023-03-17T17:13:15.869Z,8.30
2023-03-17T17:15:43.494Z,11.55
2023-03-17T17:18:18.583Z,15.98
2023-03-17T17:20:46.293Z,15.98
2023-03-17T17:23:17.160Z,13.82
2023-03-17T17:25:45.323Z,18.90
2023-03-17T17:28:14.817Z,16.02
2023-03-17T17:30:45.216Z,16.98
2023-03-17T17:33:12.743Z,24.08
2023-03-17T17:35:40.575Z,17.80
2023-03-17T17:38:16.902Z,20.88
2023-03-17T17:40:44.365Z,22.35
2023-03-17T17:43:12.219Z,23.02
2023-03-17T17:45:39.872Z,20.45
2023-03-17T17:48:07.338Z,18.70
2023-03-17T17:50:35.034Z,17.10
2023-03-17T17:53:05.654Z,16.45
2023-03-17T17:55:33.894Z,20.77
2023-03-17T17:58:01.652Z,21.12
2023-03-17T18:00:30.196Z,18.00
2023-03-17T18:02:57.992Z,19.50
2023-03-17T18:05:25.676Z,21.55
2023-03-17T18:07:53.335Z,20.92
2023-03-17T18:10:24.007Z,23.50
2023-03-17T18:12:52.245Z,21.73
2023-03-17T18:15:23.480Z,20.08
2023-03-17T18:17:51.535Z,21.10
2023-03-17T18:20:21.612Z,24.12
2023-03-17T18:22:49.663Z,20.98
2023-03-17T18:25:18.056Z,21.55
2023-03-17T18:27:47.082Z,20.58
2023-03-17T18:30:23.323Z,23.23
2023-03-17T18:32:53.087Z,34.88
2023-03-17T18:35:22.288Z,45.40
2023-03-17T18:37:50.815Z,35.35
2023-03-17T18:40:32.205Z,37.08
2023-03-17T18:42:59.644Z,46.55
2023-03-17T18:45:27.371Z,47.75
2023-03-17T18:47:54.722Z,37.85
2023-03-17T18:50:22.404Z,37.00
2023-03-17T18:52:50.649Z,43.22
2023-03-17T18:55:18.333Z,41.00
2023-03-17T18:57:46.422Z,36.25
2023-03-17T19:00:16.406Z,32.78
2023-03-17T19:02:43.761Z,40.70
2023-03-17T19:05:11.622Z,35.20
2023-03-17T19:07:40.599Z,28.45
2023-03-17T19:10:09.812Z,34.42
2023-03-17T19:12:37.564Z,36.30
2023-03-17T19:15:06.665Z,39.65
2023-03-17T19:17:35.039Z,34.47
2023-03-17T19:20:02.856Z,29.27
2023-03-17T19:22:30.766Z,29.70
2023-03-17T19:24:58.544Z,34.05
2023-03-17T19:27:26.209Z,30.12
2023-03-17T19:29:53.873Z,45.10
2023-03-17T19:32:21.257Z,47.65
2023-03-17T19:34:48.926Z,33.53
2023-03-17T19:37:16.869Z,30.30
2023-03-17T19:39:44.758Z,27.80
2023-03-17T19:42:12.595Z,30.98
2023-03-17T19:44:40.527Z,27.20
2023-03-17T19:47:08.451Z,30.48
2023-03-17T19:49:37.393Z,27.10
2023-03-17T19:52:06.552Z,31.30
2023-03-17T19:54:34.418Z,26.00
2023-03-17T19:57:01.858Z,30.10
2023-03-17T19:59:29.573Z,25.27
2023-03-17T20:01:57.118Z,24.70
2023-03-17T20:04:24.954Z,26.70
2023-03-17T20:06:55.478Z,25.85
2023-03-17T20:09:26.943Z,23.73
2023-03-17T20:11:56.046Z,25.70
2023-03-17T20:14:24.015Z,23.45
2023-03-17T20:16:51.952Z,22.48
2023-03-17T20:19:19.668Z,22.95
2023-03-17T20:21:47.012Z,27.62
2023-03-17T20:24:14.817Z,22.90
2023-03-17T20:26:43.428Z,24.05
2023-03-17T20:29:13.301Z,23.23
2023-03-17T20:31:41.936Z,23.80
2023-03-17T20:34:10.131Z,26.98
2023-03-17T20:36:42.122Z,26.40
2023-03-17T20:39:13.338Z,27.80
2023-03-17T20:41:41.310Z,25.00
2023-03-17T20:44:09.016Z,22.37
2023-03-17T20:46:36.768Z,22.48
2023-03-17T20:49:05.646Z,23.02
2023-03-17T20:51:33.944Z,28.17
2023-03-17T20:54:02.428Z,29.35
2023-03-17T20:56:30.806Z,31.02
2023-03-17T20:58:58.684Z,30.02
2023-03-17T21:01:27.017Z,31.52
2023-03-17T21:03:54.412Z,24.33
2023-03-17T21:06:23.568Z,30.55
2023-03-17T21:08:52.389Z,35.97
2023-03-17T21:11:20.575Z,28.23
2023-03-17T21:13:47.958Z,31.02
2023-03-17T21:16:21.475Z,28.60
2023-03-17T21:18:48.908Z,28.95
2023-03-17T21:21:17.193Z,25.48
2023-03-17T21:23:45.404Z,28.55
2023-03-17T21:26:14.325Z,31.42
2023-03-17T21:28:42.558Z,27.02
2023-03-17T21:31:10.717Z,24.70
2023-03-17T21:33:38.384Z,20.95
2023-03-17T21:36:06.654Z,19.25
2023-03-17T21:38:34.290Z,23.10
2023-03-17T21:41:22.635Z,19.05
2023-03-17T21:43:50.485Z,15.05
2023-03-17T21:46:17.879Z,19.08
2023-03-17T21:48:45.473Z,17.58
2023-03-17T21:51:13.193Z,17.62
2023-03-17T21:53:40.787Z,17.87
2023-03-17T21:56:08.708Z,17.70
2023-03-17T21:58:36.567Z,17.65
2023-03-17T22:01:04.356Z,19.52
2023-03-17T22:03:32.825Z,18.87
2023-03-17T22:06:00.499Z,17.90
2023-03-17T22:08:28.686Z,19.65
2023-03-17T22:10:56.348Z,19.48
2023-03-17T22:13:24.021Z,16.40
2023-03-17T22:15:52.459Z,13.45
2023-03-17T22:18:20.382Z,16.92
2023-03-17T22:20:47.755Z,12.95
2023-03-17T22:23:15.207Z,13.43
2023-03-17T22:25:42.849Z,14.48
2023-03-17T22:28:10.230Z,14.52
2023-03-17T22:30:41.315Z,15.68
2023-03-17T22:33:09.419Z,15.43
2023-03-17T22:35:37.958Z,14.90
2023-03-17T22:38:06.385Z,17.30
2023-03-17T22:40:34.613Z,12.75
2023-03-17T22:43:02.777Z,14.95
2023-03-17T22:45:30.423Z,13.05
2023-03-17T22:47:58.044Z,13.65
2023-03-17T22:50:25.434Z,11.70
2023-03-17T22:52:52.793Z,13.65
2023-03-17T22:55:20.505Z,14.45
2023-03-17T22:57:47.845Z,10.32
2023-03-17T23:00:16.777Z,9.63
2023-03-17T23:02:44.954Z,12.43
2023-03-17T23:05:13.634Z,9.23
2023-03-17T23:07:50.510Z,8.73
2023-03-17T23:10:24.682Z,11.60
2023-03-17T23:12:52.158Z,10.40
2023-03-17T23:15:20.893Z,10.63
2023-03-17T23:17:48.729Z,14.63
2023-03-17T23:20:16.618Z,15.35
2023-03-17T23:22:44.327Z,15.32
2023-03-17T23:25:13.617Z,11.75
2023-03-17T23:27:41.406Z,15.13
2023-03-17T23:30:11.706Z,13.00
2023-03-17T23:32:40.661Z,15.70
2023-03-17T23:35:10.164Z,21.35
2023-03-17T23:37:37.795Z,30.45
2023-03-17T23:40:09.548Z,29.95
2023-03-17T23:42:37.015Z,22.67
2023-03-17T23:45:05.045Z,20.83
2023-03-17T23:47:32.436Z,20.48
2023-03-17T23:49:59.861Z,17.33
2023-03-17T23:52:27.458Z,18.08
2023-03-17T23:54:54.895Z,16.60
2023-03-17T23:57:22.755Z,15.98
2023-03-17T23:59:50.557Z,17.50
